Time;durP1;ratioP1;P1;durP2;ratioP2;P2;SDS_P1;SDS_P2;PMS_P1;PMS_P2;Temp;Humidity;BMP_temperature;BMP_pressure;BME280_temperature;BME280_humidity;BME280_pressure;Samples;Min_cycle;Max_cycle;Signal;HPM_P1;HPM_P2
2022/03/17 00:02:12;;;;;;;23.25;16.30;;;;;;;;;;4992276;28;20525;-80
2022/03/17 00:04:38;;;;;;;27.77;16.85;;;;;;;;;;4992744;28;20058;-80
2022/03/17 00:07:05;;;;;;;27.63;17.58;;;;;;;;;;4976318;28;20050;-80
2022/03/17 00:09:37;;;;;;;25.13;15.48;;;;;;;;;;4983945;28;20077;-82
2022/03/17 00:12:03;;;;;;;22.17;16.52;;;;;;;;;;4990898;28;20177;-80
2022/03/17 00:14:32;;;;;;;24.80;16.55;;;;;;;;;;4973282;28;20077;-80
2022/03/17 00:17:08;;;;;;;25.67;16.77;;;;;;;;;;4983934;28;20129;-80
2022/03/17 00:19:35;;;;;;;24.65;16.45;;;;;;;;;;4998881;28;20519;-80
2022/03/17 00:22:01;;;;;;;23.65;16.17;;;;;;;;;;4998150;28;20457;-80
2022/03/17 00:24:27;;;;;;;22.45;17.05;;;;;;;;;;4993443;28;20046;-80
2022/03/17 00:26:56;;;;;;;23.10;15.82;;;;;;;;;;4994437;28;20644;-80
2022/03/17 00:29:22;;;;;;;25.27;16.48;;;;;;;;;;4986011;28;20088;-81
2022/03/17 00:31:49;;;;;;;24.30;16.23;;;;;;;;;;4993387;28;20461;-81
2022/03/17 00:34:15;;;;;;;22.52;15.57;;;;;;;;;;5001306;28;20049;-81
2022/03/17 00:36:41;;;;;;;25.17;16.75;;;;;;;;;;4992922;28;20380;-81
2022/03/17 00:39:08;;;;;;;25.48;15.77;;;;;;;;;;4993291;28;20743;-81
2022/03/17 00:41:38;;;;;;;31.25;17.77;;;;;;;;;;4991113;28;20108;-81
2022/03/17 00:44:07;;;;;;;25.40;17.65;;;;;;;;;;5006269;28;20061;-81
2022/03/17 00:46:39;;;;;;;23.20;17.17;;;;;;;;;;4978773;28;20057;-81
2022/03/17 00:49:11;;;;;;;25.08;16.85;;;;;;;;;;5001084;28;20050;-80
2022/03/17 00:51:37;;;;;;;22.92;16.63;;;;;;;;;;4980981;28;20057;-81
2022/03/17 00:54:07;;;;;;;24.95;16.77;;;;;;;;;;5011605;28;20429;-80
2022/03/17 00:56:33;;;;;;;23.38;16.50;;;;;;;;;;5005071;28;20056;-80
2022/03/17 00:59:02;;;;;;;22.52;16.02;;;;;;;;;;4973467;28;20057;-80
2022/03/17 01:01:28;;;;;;;24.40;16.50;;;;;;;;;;5009146;28;20497;-80
2022/03/17 01:03:55;;;;;;;26.42;16.30;;;;;;;;;;5027403;28;20565;-80
2022/03/17 01:06:21;;;;;;;26.45;18.75;;;;;;;;;;5010956;28;20049;-80
2022/03/17 01:08:47;;;;;;;25.25;16.48;;;;;;;;;;5027084;28;20050;-81
2022/03/17 01:11:13;;;;;;;19.30;16.05;;;;;;;;;;5010804;28;20053;-81
2022/03/17 01:13:39;;;;;;;25.20;16.45;;;;;;;;;;5011349;28;20379;-81
2022/03/17 01:16:06;;;;;;;25.77;17.25;;;;;;;;;;5035597;28;20128;-80
2022/03/17 01:18:36;;;;;;;22.73;16.23;;;;;;;;;;5010854;28;20104;-81
2022/03/17 01:21:02;;;;;;;22.17;15.90;;;;;;;;;;5027325;28;20325;-81
2022/03/17 01:23:28;;;;;;;22.77;16.75;;;;;;;;;;5029804;28;20328;-80
2022/03/17 01:25:54;;;;;;;24.98;18.60;;;;;;;;;;5011942;28;20139;-81
2022/03/17 01:28:20;;;;;;;24.30;16.45;;;;;;;;;;5026922;28;20405;-81
2022/03/17 01:30:46;;;;;;;23.92;16.08;;;;;;;;;;5027552;28;20081;-81
2022/03/17 01:33:13;;;;;;;22.90;16.75;;;;;;;;;;5010945;28;20824;-81
2022/03/17 01:35:39;;;;;;;25.02;17.20;;;;;;;;;;5011047;28;20128;-81
2022/03/17 01:38:05;;;;;;;23.25;16.55;;;;;;;;;;4993849;28;20045;-80
2022/03/17 01:40:31;;;;;;;23.48;17.05;;;;;;;;;;5025579;28;20048;-80
2022/03/17 01:42:57;;;;;;;26.67;17.23;;;;;;;;;;4986400;28;20037;-80
2022/03/17 01:45:25;;;;;;;23.85;16.65;;;;;;;;;;5010928;28;20060;-81
2022/03/17 01:47:51;;;;;;;28.98;18.50;;;;;;;;;;5029086;28;20294;-81
2022/03/17 01:50:20;;;;;;;26.55;18.40;;;;;;;;;;5010501;28;20042;-81
2022/03/17 01:52:47;;;;;;;25.63;18.08;;;;;;;;;;5024396;28;20056;-81
2022/03/17 01:55:13;;;;;;;24.25;16.63;;;;;;;;;;5010165;28;20049;-81
2022/03/17 01:57:40;;;;;;;28.48;19.35;;;;;;;;;;5027413;28;20367;-81
2022/03/17 02:00:16;;;;;;;26.08;18.70;;;;;;;;;;5011620;28;20200;-81
2022/03/17 02:02:47;;;;;;;25.80;19.30;;;;;;;;;;4991443;28;20049;-81
2022/03/17 02:05:13;;;;;;;29.92;19.13;;;;;;;;;;4977555;28;20054;-81
2022/03/17 02:07:42;;;;;;;26.40;17.70;;;;;;;;;;4967118;28;20057;-81
2022/03/17 02:10:12;;;;;;;23.35;17.85;;;;;;;;;;5005794;28;20516;-81
2022/03/17 02:15:33;;;;;;;29.30;19.95;;;;;;;;;;4993797;28;20057;-81
2022/03/17 02:18:06;;;;;;;34.80;21.90;;;;;;;;;;4971562;28;20120;-80
2022/03/17 02:20:33;;;;;;;;;;;;;;;;;;5011039;28;20042;-81
2022/03/17 02:25:52;;;;;;;25.13;19.48;;;;;;;;;;4990825;28;20065;-81
2022/03/17 02:28:20;;;;;;;32.42;18.95;;;;;;;;;;5009007;28;20321;-81
2022/03/17 02:30:46;;;;;;;30.40;20.77;;;;;;;;;;4998557;28;20053;-81
2022/03/17 02:33:18;;;;;;;26.42;20.25;;;;;;;;;;5001861;28;20064;-81
2022/03/17 02:36:04;;;;;;;28.47;20.83;;;;;;;;;;4974114;28;20038;-81
2022/03/17 02:38:30;;;;;;;29.58;20.60;;;;;;;;;;4991902;28;20058;-81
2022/03/17 02:40:56;;;;;;;30.40;20.85;;;;;;;;;;4976099;28;20137;-81
2022/03/17 02:43:23;;;;;;;27.63;21.05;;;;;;;;;;4976241;28;20060;-81
2022/03/17 02:45:49;;;;;;;30.17;19.88;;;;;;;;;;4992275;28;20050;-81
2022/03/17 02:48:21;;;;;;;31.98;19.77;;;;;;;;;;4989278;28;20065;-81
2022/03/17 02:50:49;;;;;;;31.33;21.63;;;;;;;;;;4995029;28;20047;-81
2022/03/17 02:53:15;;;;;;;30.17;21.20;;;;;;;;;;4987630;28;20132;-81
2022/03/17 02:55:43;;;;;;;28.10;20.23;;;;;;;;;;4977726;28;20097;-82
2022/03/17 02:58:10;;;;;;;32.13;21.00;;;;;;;;;;4965696;28;20067;-81
2022/03/17 03:00:36;;;;;;;27.65;21.15;;;;;;;;;;5012049;28;20045;-81
2022/03/17 03:03:03;;;;;;;32.50;20.88;;;;;;;;;;5011693;28;20454;-81
2022/03/17 03:05:35;;;;;;;;;;;;;;;;;;5018823;28;20050;-81
2022/03/17 03:08:02;;;;;;;30.67;20.30;;;;;;;;;;5013450;28;19924;-81
2022/03/17 03:10:28;;;;;;;30.08;21.58;;;;;;;;;;4990797;28;20069;-81
2022/03/17 03:12:57;;;;;;;32.58;22.52;;;;;;;;;;5019790;28;20057;-81
2022/03/17 03:15:23;;;;;;;30.75;21.85;;;;;;;;;;5049384;28;20464;-81
2022/03/17 03:17:49;;;;;;;35.28;22.35;;;;;;;;;;5029553;28;20060;-81
2022/03/17 03:20:15;;;;;;;37.17;22.10;;;;;;;;;;5012592;28;20470;-81
2022/03/17 03:22:41;;;;;;;40.22;25.08;;;;;;;;;;5015015;28;20056;-81
2022/03/17 03:25:09;;;;;;;35.15;23.63;;;;;;;;;;5029099;28;20660;-81
2022/03/17 03:27:37;;;;;;;36.40;25.00;;;;;;;;;;5029910;28;20060;-81
2022/03/17 03:30:15;;;;;;;36.10;25.02;;;;;;;;;;5028950;28;20089;-81
2022/03/17 03:32:45;;;;;;;32.97;22.55;;;;;;;;;;5029926;28;20072;-81
2022/03/17 03:38:00;;;;;;;36.42;25.85;;;;;;;;;;5018127;28;19921;-81
2022/03/17 03:40:26;;;;;;;39.22;26.35;;;;;;;;;;5034898;28;20181;-81
2022/03/17 03:42:55;;;;;;;38.20;25.35;;;;;;;;;;5030063;28;20056;-82
2022/03/17 03:45:22;;;;;;;40.47;28.38;;;;;;;;;;5028460;28;20099;-81
2022/03/17 03:47:48;;;;;;;38.83;27.13;;;;;;;;;;5007414;28;20084;-81
2022/03/17 03:50:21;;;;;;;43.80;30.15;;;;;;;;;;5026001;28;20115;-81
2022/03/17 03:52:47;;;;;;;39.28;27.95;;;;;;;;;;5014865;28;20125;-81
2022/03/17 03:55:16;;;;;;;41.00;27.38;;;;;;;;;;5013550;28;20041;-81
2022/03/17 03:57:42;;;;;;;44.00;27.80;;;;;;;;;;5029297;28;20149;-81
2022/03/17 04:02:43;;;;;;;46.65;30.13;;;;;;;;;;5026113;28;20058;-81
2022/03/17 04:05:10;;;;;;;41.25;28.83;;;;;;;;;;5027581;28;20204;-81
2022/03/17 04:07:37;;;;;;;46.97;30.58;;;;;;;;;;5018538;28;20077;-81
2022/03/17 04:10:07;;;;;;;43.88;28.23;;;;;;;;;;5028560;28;20052;-81
2022/03/17 04:12:33;;;;;;;47.13;30.70;;;;;;;;;;5029318;28;20339;-81
2022/03/17 04:15:01;;;;;;;48.45;32.72;;;;;;;;;;5013643;28;20234;-81
2022/03/17 04:17:29;;;;;;;48.72;33.47;;;;;;;;;;5029144;28;20057;-81
2022/03/17 04:19:56;;;;;;;47.28;30.67;;;;;;;;;;5035419;28;20048;-81
2022/03/17 04:22:25;;;;;;;34.55;22.30;;;;;;;;;;5025990;28;20375;-81
2022/03/17 04:24:51;;;;;;;14.70;9.85;;;;;;;;;;5018325;28;20048;-81
2022/03/17 04:27:17;;;;;;;11.70;8.82;;;;;;;;;;5050251;28;20048;-81
2022/03/17 04:29:46;;;;;;;11.30;7.57;;;;;;;;;;5031802;28;20127;-81
2022/03/17 04:32:12;;;;;;;14.55;7.72;;;;;;;;;;4981081;28;20422;-81
2022/03/17 04:34:38;;;;;;;12.25;7.75;;;;;;;;;;5049949;28;20045;-81
2022/03/17 04:37:14;;;;;;;10.32;7.13;;;;;;;;;;5016543;28;20068;-81
2022/03/17 04:39:40;;;;;;;13.32;8.80;;;;;;;;;;5025519;28;20057;-81
2022/03/17 04:42:06;;;;;;;11.20;8.02;;;;;;;;;;5022132;28;20469;-81
2022/03/17 04:44:35;;;;;;;10.77;8.18;;;;;;;;;;5015265;28;20059;-81
2022/03/17 04:47:01;;;;;;;10.65;8.25;;;;;;;;;;5014698;28;20053;-81
2022/03/17 04:49:27;;;;;;;10.35;6.32;;;;;;;;;;4998225;28;20049;-80
2022/03/17 04:51:54;;;;;;;10.85;8.13;;;;;;;;;;5022511;28;20059;-81
2022/03/17 04:54:20;;;;;;;10.48;6.72;;;;;;;;;;5014999;28;20144;-80
2022/03/17 04:56:48;;;;;;;8.95;6.30;;;12.90;91.30;;;;;;5031331;28;20040;-81
2022/03/17 04:59:14;;;;;;;11.93;7.47;;;9.10;99.90;;;;;;5010980;28;20056;-81
2022/03/17 05:01:40;;;;;;;11.77;8.15;;;;;;;;;;5003958;28;20128;-81
2022/03/17 05:04:09;;;;;;;10.52;7.53;;;;;;;;;;5029824;28;20051;-81
2022/03/17 05:06:39;;;;;;;16.83;9.15;;;;;;;;;;5028220;28;20053;-81
2022/03/17 05:09:05;;;;;;;14.45;8.25;;;;;;;;;;5044057;28;20532;-81
2022/03/17 05:11:34;;;;;;;15.60;9.55;;;;;;;;;;5028061;28;20048;-81
2022/03/17 05:14:00;;;;;;;19.40;10.25;;;;;;;;;;5027613;28;20045;-81
2022/03/17 05:16:26;;;;;;;21.40;11.07;;;;;;;;;;4994913;28;20311;-81
2022/03/17 05:18:55;;;;;;;16.48;10.50;;;;;;;;;;5039759;28;20276;-81
2022/03/17 05:21:22;;;;;;;20.63;9.88;;;;;;;;;;5021545;28;20382;-81
2022/03/17 05:23:48;;;;;;;17.85;8.65;;;;;;;;;;5011409;28;20116;-81
2022/03/17 05:26:14;;;;;;;17.73;9.25;;;;;;;;;;5010969;28;20144;-81
2022/03/17 05:28:41;;;;;;;14.23;7.18;;;;;;;;;;5005701;28;20472;-82
2022/03/17 05:31:16;;;;;;;14.63;7.45;;;;;;;;;;5012067;28;20090;-81
2022/03/17 05:33:45;;;;;;;13.93;7.22;;;;;;;;;;5019561;28;21951;-81
2022/03/17 05:36:11;;;;;;;14.77;6.97;;;;;;;;;;5047431;28;20049;-81
2022/03/17 05:38:40;;;;;;;13.88;6.72;;;;;;;;;;5021157;28;20417;-81
2022/03/17 05:41:13;;;;;;;10.45;5.72;;;;;;;;;;5024427;28;20060;-81
2022/03/17 05:43:39;;;;;;;10.15;5.30;;;;;;;;;;5014241;28;20053;-81
2022/03/17 05:46:05;;;;;;;10.07;4.72;;;;;;;;;;5043864;28;20124;-81
2022/03/17 05:48:31;;;;;;;13.32;5.57;;;;;;;;;;4979888;28;20213;-81
2022/03/17 05:51:00;;;;;;;9.13;4.97;;;;;;;;;;5019591;28;20057;-81
2022/03/17 05:53:26;;;;;;;9.13;4.20;;;;;;;;;;5027156;28;20045;-81
2022/03/17 05:55:52;;;;;;;12.88;4.93;;;;;;;;;;5010164;28;20456;-82
2022/03/17 05:58:18;;;;;;;10.63;4.22;;;;;;;;;;5009122;28;20046;-82
2022/03/17 06:00:45;;;;;;;15.02;5.35;;;;;;;;;;5003909;28;20145;-82
2022/03/17 06:03:11;;;;;;;12.18;4.18;;;;;;;;;;5022047;28;20568;-81
2022/03/17 06:05:37;;;;;;;9.93;4.15;;;;;;;;;;5013338;28;20095;-82
2022/03/17 06:08:03;;;;;;;11.52;4.38;;;;;;;;;;5028799;28;20370;-82
2022/03/17 06:10:33;;;;;;;10.55;4.43;;;;;;;;;;5009874;28;20057;-82
2022/03/17 06:13:03;;;;;;;9.68;4.20;;;;;;;;;;5026523;28;20176;-82
2022/03/17 06:15:29;;;;;;;9.25;3.80;;;;;;;;;;5029283;28;20052;-81
2022/03/17 06:17:59;;;;;;;9.20;4.00;;;;;;;;;;5025965;28;20410;-81
2022/03/17 06:20:29;;;;;;;10.52;3.88;;;;;;;;;;4993659;28;20096;-81
2022/03/17 06:22:57;;;;;;;16.73;4.20;;;;;;;;;;5027648;28;20064;-79
2022/03/17 06:25:27;;;;;;;14.23;2.78;;;;;;;;;;5024951;28;20313;-80
2022/03/17 06:27:53;;;;;;;9.40;2.95;;;;;;;;;;5030484;28;20049;-79
2022/03/17 06:30:21;;;;;;;13.60;4.28;;;;;;;;;;5030215;28;20537;-79
2022/03/17 06:32:48;;;;;;;8.05;2.85;;;;;;;;;;5014086;28;20343;-79
2022/03/17 06:35:17;;;;;;;15.15;3.10;;;;;;;;;;5030367;28;20049;-79
2022/03/17 06:37:52;;;;;;;19.02;4.13;;;;;;;;;;5034243;28;20536;-79
2022/03/17 06:40:19;;;;;;;8.30;4.47;;;;;;;;;;5028162;28;20053;-78
2022/03/17 06:42:46;;;;;;;8.68;3.53;;;;;;;;;;5027616;28;20056;-79
2022/03/17 06:45:12;;;;;;;9.23;4.03;;;;;;;;;;5031064;28;20095;-82
2022/03/17 06:47:38;;;;;;;7.03;3.55;;;;;;;;;;5020508;28;20057;-82
2022/03/17 06:50:05;;;;;;;6.43;2.80;;;;;;;;;;5028450;28;20079;-82
2022/03/17 06:52:35;;;;;;;9.40;3.58;;;;;;;;;;5019423;28;20573;-81
2022/03/17 06:55:02;;;;;;;12.60;4.50;;;;;;;;;;5013625;28;20068;-81
2022/03/17 06:57:29;;;;;;;12.10;3.40;;;;;;;;;;5015426;28;20471;-81
2022/03/17 06:59:55;;;;;;;9.77;3.42;;;;;;;;;;5028510;28;20072;-81
2022/03/17 07:02:21;;;;;;;9.00;4.30;;;;;;;;;;5025567;28;20080;-82
2022/03/17 07:04:47;;;;;;;8.80;3.67;;;;;;;;;;5030049;28;20181;-80
2022/03/17 07:07:16;;;;;;;11.30;3.50;;;;;;;;;;5029469;28;20045;-80
2022/03/17 07:09:45;;;;;;;14.23;3.72;;;;;;;;;;5028943;28;20129;-85
2022/03/17 07:12:12;;;;;;;9.73;3.50;;;;;;;;;;4978165;28;20085;-81
2022/03/17 07:14:41;;;;;;;10.50;4.43;;;;;;;;;;5012951;28;20053;-82
2022/03/17 07:17:10;;;;;;;9.38;4.55;;;;;;;;;;5014015;28;20049;-81
2022/03/17 07:19:37;;;;;;;10.77;3.25;;;;;;;;;;5040011;28;20132;-78
2022/03/17 07:22:04;;;;;;;11.82;3.97;;;;;;;;;;5029052;28;20385;-78
2022/03/17 07:24:30;;;;;;;10.95;3.03;;;;;;;;;;5020466;28;20048;-78
2022/03/17 07:26:58;;;;;;;6.97;3.22;;;;;;;;;;5028841;28;20050;-79
2022/03/17 07:29:42;;;;;;;15.57;4.10;;;;;;;;;;5013971;28;20174;-81
2022/03/17 07:32:14;;;;;;;10.05;4.30;;;;;;;;;;5032010;28;20378;-82
2022/03/17 07:34:40;;;;;;;21.00;4.35;;;;;;;;;;4994961;28;20171;-80
2022/03/17 07:37:06;;;;;;;16.65;3.63;;;;;;;;;;5009091;28;20053;-80
2022/03/17 07:39:33;;;;;;;17.02;4.38;;;;;;;;;;5019898;28;20203;-80
2022/03/17 07:41:59;;;;;;;14.05;3.30;;;;;;;;;;5013777;28;20163;-80
2022/03/17 07:44:28;;;;;;;12.15;4.13;;;;;;;;;;5010275;28;20053;-81
2022/03/17 07:46:55;;;;;;;14.98;3.88;;;;;;;;;;5008482;28;20115;-79
2022/03/17 07:49:21;;;;;;;18.27;4.80;;;;;;;;;;5016906;28;20228;-80
2022/03/17 07:51:50;;;;;;;18.02;5.38;;;;;;;;;;5008934;28;20445;-78
2022/03/17 07:54:17;;;;;;;9.80;3.92;;;;;;;;;;5027906;28;20582;-79
2022/03/17 07:56:44;;;;;;;10.82;4.40;;;;;;;;;;5032277;28;20046;-78
2022/03/17 07:59:12;;;;;;;17.00;3.90;;;;;;;;;;5026884;28;20077;-80
2022/03/17 08:01:38;;;;;;;13.65;4.97;;;;;;;;;;5028900;28;20382;-80
2022/03/17 08:04:08;;;;;;;12.30;4.00;;;;;;;;;;5003622;28;20085;-79
2022/03/17 08:06:37;;;;;;;14.25;3.90;;;;;;;;;;5022435;28;20054;-79
2022/03/17 08:09:04;;;;;;;15.80;4.00;;;;;;;;;;5024262;28;20347;-80
2022/03/17 08:11:30;;;;;;;14.07;4.22;;;;;;;;;;5026950;28;20041;-79
2022/03/17 08:13:58;;;;;;;13.10;4.47;;;;;;;;;;5007236;28;20053;-79
2022/03/17 08:16:31;;;;;;;15.27;3.78;;;;;;;;;;5013630;28;20064;-80
2022/03/17 08:18:57;;;;;;;19.98;4.63;;;;;;;;;;5013801;28;20045;-80
2022/03/17 08:21:23;;;;;;;20.38;5.78;;;;;;;;;;5022297;28;20111;-81
2022/03/17 08:23:50;;;;;;;7.80;2.50;;;;;;;;;;5020274;28;20042;-80
2022/03/17 08:26:16;;;;;;;7.47;3.00;;;;;;;;;;5014371;28;20375;-80
2022/03/17 08:28:42;;;;;;;7.38;2.90;;;;;;;;;;5021328;28;20056;-80
2022/03/17 08:31:08;;;;;;;16.48;3.63;;;;;;;;;;5011605;28;20050;-80
2022/03/17 08:33:35;;;;;;;14.20;4.35;;;;;;;;;;5020637;28;20143;-80
2022/03/17 08:36:01;;;;;;;11.75;3.65;;;;;;;;;;5023549;28;20049;-81
2022/03/17 08:38:27;;;;;;;10.98;3.58;;;;;;;;;;5026011;28;20052;-80
2022/03/17 08:40:56;;;;;;;10.10;3.72;;;;;;;;;;5005752;28;20033;-82
2022/03/17 08:43:23;;;;;;;11.82;4.00;;;;;;;;;;5026180;28;20041;-81
2022/03/17 08:51:19;;;;;;;14.23;3.90;;;;;;;;;;5020588;28;20593;-80
2022/03/17 08:53:45;;;;;;;7.90;2.88;;;;;;;;;;5026332;28;20057;-80
2022/03/17 08:56:12;;;;;;;14.88;3.47;;;;;;;;;;5029395;28;20116;-81
2022/03/17 08:58:38;;;;;;;10.43;2.90;;;;;;;;;;5044155;28;20512;-80
2022/03/17 09:01:05;;;;;;;10.25;3.30;;;;;;;;;;5026952;28;20618;-79
2022/03/17 09:03:34;;;;;;;11.07;3.25;;;;;;;;;;5024770;28;20196;-79
2022/03/17 09:06:00;;;;;;;10.48;3.72;;;;;;;;;;5029128;28;20064;-81
2022/03/17 09:08:27;;;;;;;10.40;3.20;;;;;;;;;;5027131;28;20048;-80
2022/03/17 09:10:55;;;;;;;8.95;3.42;;;;;;;;;;5025453;28;20052;-81
2022/03/17 09:13:22;;;;;;;10.82;3.50;;;;;;;;;;5011844;28;20130;-81
2022/03/17 09:15:49;;;;;;;10.63;2.78;;;;;;;;;;5010896;28;20060;-81
2022/03/17 09:18:24;;;;;;;10.20;3.30;;;;;;;;;;5026151;28;20049;-81
2022/03/17 09:20:53;;;;;;;6.32;2.00;;;;;;;;;;5019540;28;20095;-81
2022/03/17 09:23:19;;;;;;;8.55;2.63;;;;;;;;;;5028243;28;20324;-81
2022/03/17 09:25:46;;;;;;;5.65;2.60;;;;;;;;;;5021540;28;20620;-81
2022/03/17 09:28:15;;;;;;;9.68;3.47;;;;;;;;;;5041625;28;20077;-81
2022/03/17 09:30:41;;;;;;;14.98;4.57;;;;;;;;;;5018213;28;20053;-80
2022/03/17 09:33:09;;;;;;;11.77;3.78;;;;;;;;;;5011659;28;20056;-80
2022/03/17 09:35:35;;;;;;;8.57;3.00;;;;;;;;;;4994052;28;20099;-81
2022/03/17 09:38:02;;;;;;;14.40;4.97;;;;;;;;;;5016612;28;20386;-80
2022/03/17 09:40:28;;;;;;;9.25;3.13;;;;;;;;;;5022116;28;20061;-81
2022/03/17 09:43:18;;;;;;;9.48;2.85;;;;;;;;;;5008433;28;20061;-81
2022/03/17 09:45:51;;;;;;;9.88;3.80;;;;;;;;;;5026535;28;20418;-80
2022/03/17 09:48:17;;;;;;;14.35;4.03;;;;;;;;;;5026161;28;20045;-81
2022/03/17 09:50:47;;;;;;;13.20;3.33;;;9.00;99.90;;;;;;5026049;28;20125;-79
2022/03/17 09:53:13;;;;;;;12.52;3.90;;;9.00;99.90;;;;;;5032221;28;20052;-79
2022/03/17 09:55:43;;;;;;;7.72;2.85;;;9.00;99.90;;;;;;5009570;28;20041;-79
2022/03/17 09:58:10;;;;;;;8.52;2.42;;;9.00;99.90;;;;;;4990482;28;20139;-80
2022/03/17 10:00:49;;;;;;;10.48;3.83;;;9.10;99.90;;;;;;5026942;28;20053;-80
2022/03/17 10:03:18;;;;;;;13.98;4.88;;;9.10;99.90;;;;;;5025235;28;20053;-80
2022/03/17 10:05:49;;;;;;;7.45;2.78;;;9.10;99.90;;;;;;5029312;28;20329;-80
2022/03/17 10:08:16;;;;;;;16.92;3.45;;;9.20;99.90;;;;;;5011895;28;20050;-80
2022/03/17 10:10:47;;;;;;;14.55;3.65;;;9.20;99.90;;;;;;5026622;28;20495;-80
2022/03/17 10:13:19;;;;;;;16.13;4.70;;;9.30;99.90;;;;;;5029275;28;20176;-80
2022/03/17 10:15:47;;;;;;;14.13;3.15;;;9.30;99.90;;;;;;5022091;28;20042;-80
2022/03/17 10:18:20;;;;;;;8.95;3.42;;;9.30;99.90;;;;;;5020719;28;20076;-80
2022/03/17 10:20:46;;;;;;;8.50;4.07;;;9.30;99.90;;;;;;4996103;28;20107;-81
2022/03/17 10:23:13;;;;;;;14.50;4.20;;;9.30;99.90;;;;;;4993330;28;20049;-80
2022/03/17 10:25:40;;;;;;;8.73;2.88;;;9.30;99.90;;;;;;4994120;28;20056;-80
2022/03/17 10:28:16;;;;;;;16.55;4.25;;;9.30;99.90;;;;;;5029294;28;20544;-80
2022/03/17 10:30:42;;;;;;;10.80;3.97;;;9.40;99.90;;;;;;5030482;28;20375;-80
2022/03/17 10:33:15;;;;;;;19.85;4.80;;;9.40;99.90;;;;;;4999896;28;20042;-80
2022/03/17 10:35:45;;;;;;;11.98;3.70;;;9.40;99.90;;;;;;5009329;28;20418;-79
2022/03/17 10:38:16;;;;;;;15.30;4.70;;;9.50;99.90;;;;;;5011206;28;20815;-80
2022/03/17 10:40:45;;;;;;;17.08;4.05;;;9.50;99.90;;;;;;5028761;28;20076;-80
2022/03/17 10:43:24;;;;;;;10.95;4.10;;;9.60;99.90;;;;;;5007929;28;20117;-80
2022/03/17 10:46:13;;;;;;;11.00;4.50;;;9.60;99.90;;;;;;5045152;28;20048;-80
2022/03/17 10:49:01;;;;;;;16.88;3.35;;;9.70;99.90;;;;;;5028217;28;20568;-80
2022/03/17 10:51:42;;;;;;;13.43;3.55;;;9.60;99.90;;;;;;5041264;28;20502;-80
2022/03/17 10:54:19;;;;;;;7.20;3.10;;;9.60;99.90;;;;;;5027762;28;20430;-80
2022/03/17 10:57:05;;;;;;;7.78;3.45;;;9.60;99.90;;;;;;5029869;28;20056;-80
2022/03/17 10:59:44;;;;;;;15.38;3.83;;;9.60;99.90;;;;;;5032154;28;20061;-80
2022/03/17 11:02:24;;;;;;;13.45;4.95;;;9.60;99.90;;;;;;5027714;28;20064;-80
2022/03/17 11:04:51;;;;;;;13.45;3.90;;;9.70;99.90;;;;;;5037544;28;20625;-81
2022/03/17 11:07:21;;;;;;;5.50;2.72;;;9.70;99.90;;;;;;5013076;28;20136;-83
2022/03/17 11:09:53;;;;;;;7.32;3.38;;;9.80;99.90;;;;;;5013242;28;20155;-82
2022/03/17 11:12:23;;;;;;;12.10;4.40;;;9.90;99.90;;;;;;5021925;28;20397;-82
2022/03/17 11:14:55;;;;;;;12.63;3.75;;;10.00;99.90;;;;;;5047341;28;20080;-82
2022/03/17 11:17:26;;;;;;;12.27;4.15;;;9.90;99.90;;;;;;5017245;28;20155;-82
2022/03/17 11:19:54;;;;;;;12.18;4.20;;;9.90;99.90;;;;;;5010491;28;20049;-81
2022/03/17 11:22:29;;;;;;;10.23;3.70;;;;;;;;;;5044258;28;20601;-81
2022/03/17 11:25:14;;;;;;;15.30;4.25;;;;;;;;;;5048402;28;20132;-81
2022/03/17 11:28:09;;;;;;;9.25;3.75;;;;;;;;;;5023911;28;20057;-81
2022/03/17 11:30:46;;;;;;;11.90;4.25;;;;;;;;;;5017651;28;20103;-81
2022/03/17 11:33:32;;;;;;;18.27;3.90;;;;;;;;;;5031739;28;20579;-80
2022/03/17 11:35:59;;;;;;;11.25;4.05;;;;;;;;;;5012057;28;20080;-80
2022/03/17 11:38:38;;;;;;;9.70;3.35;;;;;;;;;;5032727;28;20346;-81
2022/03/17 11:41:07;;;;;;;8.27;3.00;;;;;;;;;;5014325;28;20057;-80
2022/03/17 11:43:39;;;;;;;10.35;3.58;;;;;;;;;;5012311;28;20045;-80
2022/03/17 11:46:12;;;;;;;5.50;2.90;;;;;;;;;;5018055;28;20057;-80
2022/03/17 11:48:43;;;;;;;14.60;3.28;;;;;;;;;;5022671;28;20195;-81
2022/03/17 11:51:11;;;;;;;12.20;3.47;;;;;;;;;;5030946;28;20514;-80
2022/03/17 11:53:39;;;;;;;11.63;3.17;;;;;;;;;;5045319;28;20041;-79
2022/03/17 11:56:06;;;;;;;11.50;3.97;;;;;;;;;;5022585;28;20053;-79
2022/03/17 11:58:47;;;;;;;8.35;3.08;;;;;;;;;;5052572;28;20104;-79
2022/03/17 12:01:29;;;;;;;8.45;2.47;;;;;;;;;;5050150;28;20053;-79
2022/03/17 12:03:57;;;;;;;12.07;3.90;;;;;;;;;;5033537;28;20408;-79
2022/03/17 12:06:25;;;;;;;10.10;2.80;;;;;;;;;;5047451;28;20048;-79
2022/03/17 12:09:00;;;;;;;10.25;3.40;;;;;;;;;;5014510;28;20556;-79
2022/03/17 12:11:29;;;;;;;19.02;3.58;;;;;;;;;;5033849;28;20358;-79
2022/03/17 12:14:23;;;;;;;8.73;2.78;;;;;;;;;;5016456;28;20481;-78
2022/03/17 12:17:12;;;;;;;8.90;3.55;;;;;;;;;;5013952;28;20051;-77
2022/03/17 12:19:39;;;;;;;8.88;2.97;;;;;;;;;;5022837;28;20085;-77
2022/03/17 12:22:06;;;;;;;7.45;3.15;;;;;;;;;;5024895;28;20448;-79
2022/03/17 12:24:39;;;;;;;10.07;3.65;;;;;;;;;;5044121;28;20442;-80
2022/03/17 12:27:06;;;;;;;7.05;2.80;;;;;;;;;;5015783;28;20049;-79
2022/03/17 12:29:33;;;;;;;13.32;4.05;;;;;;;;;;5014464;28;20049;-78
2022/03/17 12:32:06;;;;;;;10.52;2.78;;;;;;;;;;5028115;28;20194;-80
2022/03/17 12:34:34;;;;;;;14.43;3.30;;;;;;;;;;5032501;28;20045;-80
2022/03/17 12:37:01;;;;;;;6.40;2.47;;;;;;;;;;5025884;28;20148;-80
2022/03/17 12:39:28;;;;;;;5.88;2.83;;;;;;;;;;5033843;28;20049;-78
2022/03/17 12:41:55;;;;;;;7.60;3.15;;;;;;;;;;4999539;28;20051;-78
2022/03/17 12:44:22;;;;;;;5.72;2.42;;;;;;;;;;5016276;28;20044;-79
2022/03/17 12:46:52;;;;;;;14.23;4.53;;;;;;;;;;5013779;28;20148;-79
2022/03/17 12:49:22;;;;;;;8.27;2.90;;;;;;;;;;5020022;28;20056;-78
2022/03/17 12:51:49;;;;;;;9.85;3.03;;;;;;;;;;5032257;28;20347;-79
2022/03/17 12:54:16;;;;;;;8.80;2.33;;;;;;;;;;5031647;28;20048;-80
2022/03/17 12:56:48;;;;;;;8.77;3.72;;;;;;;;;;5022037;28;20130;-77
2022/03/17 12:59:14;;;;;;;10.90;3.15;;;;;;;;;;5050395;28;20106;-78
2022/03/17 13:01:42;;;;;;;12.73;3.08;;;;;;;;;;5003381;28;20052;-79
2022/03/17 13:04:08;;;;;;;10.75;2.58;;;;;;;;;;5032921;28;20133;-78
2022/03/17 13:06:54;;;;;;;10.32;2.15;;;;;;;;;;5050362;28;20377;-77
2022/03/17 13:09:22;;;;;;;8.80;2.85;;;;;;;;;;5037014;28;20045;-78
2022/03/17 13:14:45;;;;;;;8.00;2.17;;;;;;;;;;5015432;28;20114;-77
2022/03/17 13:17:11;;;;;;;10.60;3.03;;;;;;;;;;5030255;28;20575;-77
2022/03/17 13:19:49;;;;;;;9.13;2.75;;;;;;;;;;5031230;28;20060;-78
2022/03/17 13:22:22;;;;;;;6.25;2.55;;;;;;;;;;5013656;28;20051;-78
2022/03/17 13:24:59;;;;;;;10.55;2.88;;;;;;;;;;5030032;28;20057;-77
2022/03/17 13:27:31;;;;;;;8.07;2.35;;;;;;;;;;5030857;28;20465;-78
2022/03/17 13:30:02;;;;;;;11.05;2.30;;;;;;;;;;5048547;28;20057;-78
2022/03/17 13:32:29;;;;;;;11.52;3.38;;;;;;;;;;5029674;28;20049;-78
2022/03/17 13:35:02;;;;;;;6.53;1.98;;;;;;;;;;5031547;28;20045;-78
2022/03/17 13:37:45;;;;;;;8.60;2.55;;;;;;;;;;5016561;28;20040;-77
2022/03/17 13:40:20;;;;;;;12.43;4.22;;;;;;;;;;5031610;28;20092;-77
2022/03/17 13:43:01;;;;;;;10.35;2.58;;;;;;;;;;5014839;28;20052;-78
2022/03/17 13:45:35;;;;;;;7.85;2.35;;;;;;;;;;5017027;28;20055;-78
2022/03/17 13:48:05;;;;;;;6.75;2.60;;;;;;;;;;5022799;28;20045;-78
2022/03/17 13:50:32;;;;;;;6.40;2.05;;;;;;;;;;5030988;28;20052;-78
2022/03/17 13:53:00;;;;;;;5.30;2.60;;;;;;;;;;5047567;28;20045;-77
2022/03/17 13:55:35;;;;;;;6.32;2.40;;;;;;;;;;5031120;28;20078;-78
2022/03/17 13:58:20;;;;;;;9.38;3.15;;;;;;;;;;5035507;28;20140;-77
2022/03/17 14:00:48;;;;;;;7.85;2.33;;;;;;;;;;5028060;28;20049;-78
2022/03/17 14:03:21;;;;;;;9.23;2.78;;;;;;;;;;5030911;28;20117;-79
2022/03/17 14:06:17;;;;;;;7.95;2.15;;;;;;;;;;5026851;28;20079;-78
2022/03/17 14:08:53;;;;;;;4.38;2.15;;;;;;;;;;4997990;28;20166;-82
2022/03/17 14:11:21;;;;;;;6.28;2.03;;;;;;;;;;5019206;28;20385;-79
2022/03/17 14:13:54;;;;;;;8.23;1.98;;;;;;;;;;5021668;28;20056;-79
2022/03/17 14:16:30;;;;;;;5.10;2.17;;;;;;;;;;5030514;28;20099;-79
2022/03/17 14:18:56;;;;;;;7.35;2.13;;;;;;;;;;5005783;28;20103;-78
2022/03/17 14:21:26;;;;;;;8.93;3.00;;;;;;;;;;4992868;28;20044;-78
2022/03/17 14:24:10;;;;;;;9.27;2.88;;;;;;;;;;5031663;28;20075;-78
2022/03/17 14:26:44;;;;;;;6.45;3.92;;;;;;;;;;5003703;28;20053;-79
2022/03/17 14:29:11;;;;;;;11.70;3.25;;;;;;;;;;5029256;28;20048;-80
2022/03/17 14:31:39;;;;;;;8.88;2.15;;;;;;;;;;5013013;28;20126;-80
2022/03/17 14:34:06;;;;;;;5.30;1.65;;;;;;;;;;5013252;28;20044;-82
2022/03/17 14:36:33;;;;;;;7.05;2.78;;;;;;;;;;5018743;28;20045;-80
2022/03/17 14:38:59;;;;;;;7.05;1.95;;;;;;;;;;5048785;28;20071;-81
2022/03/17 14:41:26;;;;;;;5.57;2.28;;;;;;;;;;5027261;28;20056;-81
2022/03/17 14:43:53;;;;;;;5.60;1.80;;;;;;;;;;5027747;28;20053;-81
2022/03/17 14:46:23;;;;;;;7.88;2.40;;;;;;;;;;5042818;28;20049;-82
2022/03/17 14:48:50;;;;;;;6.10;1.95;;;;;;;;;;5034699;28;20164;-80
2022/03/17 14:51:17;;;;;;;6.53;3.05;;;;;;;;;;5011927;28;20576;-80